createdAt,value
2022-09-12T00:00:10.841Z,12.46
2022-09-12T00:02:37.297Z,12.40
2022-09-12T00:05:04.229Z,12.39
2022-09-12T00:07:30.655Z,12.33
2022-09-12T00:09:57.181Z,12.24
2022-09-12T00:12:23.601Z,12.18
2022-09-12T00:14:50.015Z,12.15
2022-09-12T00:17:16.425Z,12.12
2022-09-12T00:19:42.921Z,12.15
2022-09-12T00:22:09.360Z,12.16
2022-09-12T00:24:35.884Z,12.14
2022-09-12T00:27:02.272Z,12.13
2022-09-12T00:29:28.783Z,12.11
2022-09-12T00:31:55.254Z,12.06
2022-09-12T00:34:21.669Z,12.00
2022-09-12T00:36:48.065Z,11.99
2022-09-12T00:39:16.795Z,12.01
2022-09-12T00:41:43.990Z,12.02
2022-09-12T00:44:10.345Z,11.99
2022-09-12T00:46:45.749Z,11.95
2022-09-12T00:49:33.345Z,11.97
2022-09-12T00:52:13.627Z,11.94
2022-09-12T00:54:47.932Z,11.90
2022-09-12T00:57:16.278Z,11.91
2022-09-12T01:00:15.153Z,11.84
2022-09-12T01:02:48.980Z,11.82
2022-09-12T01:05:16.296Z,11.80
2022-09-12T01:07:44.565Z,11.71
2022-09-12T01:10:11.509Z,11.66
2022-09-12T01:12:41.128Z,11.66
2022-09-12T01:15:08.451Z,11.64
2022-09-12T01:17:58.604Z,11.58
2022-09-12T01:20:31.268Z,11.52
2022-09-12T01:23:07.452Z,11.51
2022-09-12T01:25:45.793Z,11.46
2022-09-12T01:28:58.325Z,11.43
2022-09-12T01:31:28.748Z,11.40
2022-09-12T01:34:01.635Z,11.39
2022-09-12T01:36:51.356Z,11.36
2022-09-12T01:39:20.462Z,11.35
2022-09-12T01:42:01.057Z,11.36
2022-09-12T01:45:11.954Z,11.34
2022-09-12T01:47:38.450Z,11.30
2022-09-12T01:50:17.681Z,11.28
2022-09-12T01:52:50.274Z,11.25
2022-09-12T01:55:25.732Z,11.24
2022-09-12T01:58:04.522Z,11.20
2022-09-12T02:00:34.663Z,11.17
2022-09-12T02:03:21.144Z,11.17
2022-09-12T02:05:51.885Z,11.14
2022-09-12T02:08:25.189Z,11.13
2022-09-12T02:11:07.768Z,11.13
2022-09-12T02:13:46.633Z,11.12
2022-09-12T02:16:21.394Z,11.10
2022-09-12T02:18:53.540Z,11.09
2022-09-12T02:21:22.586Z,11.06
2022-09-12T02:23:57.073Z,11.06
2022-09-12T02:26:41.277Z,11.07
2022-09-12T02:29:07.758Z,11.06
2022-09-12T02:31:44.526Z,11.04
2022-09-12T02:34:22.006Z,11.00
2022-09-12T02:36:50.119Z,11.00
2022-09-12T02:39:20.905Z,10.96
2022-09-12T02:41:51.650Z,10.96
2022-09-12T02:44:18.503Z,10.97
2022-09-12T02:46:51.608Z,10.96
2022-09-12T02:49:18.220Z,10.90
2022-09-12T02:51:46.545Z,10.88
2022-09-12T02:54:15.785Z,10.91
2022-09-12T02:56:44.330Z,10.89
2022-09-12T02:59:16.082Z,10.90
2022-09-12T03:02:12.273Z,10.89
2022-09-12T03:04:48.383Z,10.85
2022-09-12T03:07:42.581Z,10.82
2022-09-12T03:10:27.494Z,10.78
2022-09-12T03:13:20.470Z,10.79
2022-09-12T03:15:54.606Z,10.77
2022-09-12T03:18:35.590Z,10.75
2022-09-12T03:21:05.635Z,10.73
2022-09-12T03:24:05.065Z,10.71
2022-09-12T03:27:03.184Z,10.70
2022-09-12T03:29:31.410Z,10.65
2022-09-12T03:31:58.815Z,10.64
2022-09-12T03:34:27.335Z,10.63
2022-09-12T03:36:57.566Z,10.59
2022-09-12T03:39:24.501Z,10.59
2022-09-12T03:41:51.905Z,10.58
2022-09-12T03:44:19.142Z,10.58
2022-09-12T03:46:45.826Z,10.57
2022-09-12T03:49:12.486Z,10.54
2022-09-12T03:51:39.538Z,10.47
2022-09-12T03:54:06.816Z,10.46
2022-09-12T03:56:33.296Z,10.43
2022-09-12T03:58:59.785Z,10.42
2022-09-12T04:01:26.223Z,10.45
2022-09-12T04:03:52.962Z,10.44
2022-09-12T04:06:22.249Z,10.47
2022-09-12T04:08:50.826Z,10.45
2022-09-12T04:11:18.542Z,10.47
2022-09-12T04:13:45.934Z,10.49
2022-09-12T04:16:14.416Z,10.51
2022-09-12T04:18:41.370Z,10.52
2022-09-12T04:21:10.822Z,10.53
2022-09-12T04:23:37.980Z,10.54
2022-09-12T04:26:06.515Z,10.58
2022-09-12T04:28:34.504Z,10.57
2022-09-12T04:31:23.589Z,10.58
2022-09-12T04:33:58.309Z,10.57
2022-09-12T04:36:26.088Z,10.59
2022-09-12T04:38:53.647Z,10.60
2022-09-12T04:41:23.471Z,10.63
2022-09-12T04:43:58.865Z,10.66
2022-09-12T04:46:26.451Z,10.64
2022-09-12T04:48:56.690Z,10.65
2022-09-12T04:51:27.769Z,10.65
2022-09-12T04:53:58.069Z,10.66
2022-09-12T04:56:27.061Z,10.65
2022-09-12T04:58:53.661Z,10.65
2022-09-12T05:01:22.377Z,10.69
2022-09-12T05:03:50.288Z,10.73
2022-09-12T05:06:25.464Z,10.75
2022-09-12T05:08:53.200Z,10.80
2022-09-12T05:11:26.627Z,10.81
2022-09-12T05:13:57.276Z,10.85
2022-09-12T05:16:25.518Z,10.89
2022-09-12T05:18:52.556Z,10.93
2022-09-12T05:21:21.234Z,10.96
2022-09-12T05:23:50.502Z,11.00
2022-09-12T05:26:17.276Z,11.03
2022-09-12T05:28:43.945Z,11.04
2022-09-12T05:31:21.792Z,11.05
2022-09-12T05:33:50.089Z,11.06
2022-09-12T05:36:19.944Z,11.07
2022-09-12T05:38:47.581Z,11.12
2022-09-12T05:41:24.649Z,11.17
2022-09-12T05:43:53.877Z,11.22
2022-09-12T05:46:22.977Z,11.24
2022-09-12T05:48:55.089Z,11.25
2022-09-12T05:51:28.056Z,11.27
2022-09-12T05:53:57.343Z,11.29
2022-09-12T05:56:26.089Z,11.32
2022-09-12T05:58:55.821Z,11.32
2022-09-12T06:01:22.687Z,11.32
2022-09-12T06:03:52.027Z,11.28
2022-09-12T06:06:21.452Z,11.24
2022-09-12T06:08:50.390Z,11.24
2022-09-12T06:11:23.100Z,11.23
2022-09-12T06:13:50.971Z,11.25
2022-09-12T06:16:23.319Z,11.25
2022-09-12T06:18:52.246Z,11.24
2022-09-12T06:21:18.691Z,11.27
2022-09-12T06:23:48.143Z,11.29
2022-09-12T06:26:17.144Z,11.35
2022-09-12T06:28:45.020Z,11.37
2022-09-12T06:31:16.675Z,11.43
2022-09-12T06:33:45.641Z,11.48
2022-09-12T06:36:16.094Z,11.53
2022-09-12T06:38:43.210Z,11.60
2022-09-12T06:41:12.439Z,11.65
2022-09-12T06:43:40.586Z,11.72
2022-09-12T06:46:07.936Z,11.78
2022-09-12T06:48:39.587Z,11.84
2022-09-12T06:51:13.842Z,11.89
2022-09-12T06:53:41.804Z,11.93
2022-09-12T06:56:20.253Z,12.00
2022-09-12T06:58:48.643Z,12.06
2022-09-12T07:01:20.340Z,12.16
2022-09-12T07:03:49.700Z,12.29
2022-09-12T07:06:18.299Z,12.43
2022-09-12T07:08:45.909Z,12.60
2022-09-12T07:11:24.473Z,12.72
2022-09-12T07:13:53.426Z,12.90
2022-09-12T07:16:20.524Z,13.01
2022-09-12T07:18:51.743Z,13.17
2022-09-12T07:21:18.551Z,13.31
2022-09-12T07:23:45.483Z,13.46
2022-09-12T07:26:13.629Z,13.56
2022-09-12T07:28:40.780Z,13.67
2022-09-12T07:31:15.506Z,13.80
2022-09-12T07:33:42.828Z,13.96
2022-09-12T07:36:13.701Z,14.15
2022-09-12T07:38:41.107Z,14.31
2022-09-12T07:41:21.218Z,14.46
2022-09-12T07:43:48.241Z,14.58
2022-09-12T07:46:15.044Z,14.73
2022-09-12T07:48:41.533Z,14.86
2022-09-12T07:51:10.295Z,15.03
2022-09-12T07:53:39.231Z,15.20
2022-09-12T07:56:08.101Z,15.38
2022-09-12T07:58:36.498Z,15.54
2022-09-12T08:01:08.866Z,15.64
2022-09-12T08:03:39.261Z,15.81
2022-09-12T08:06:07.118Z,16.00
2022-09-12T08:08:35.180Z,16.16
2022-09-12T08:11:05.970Z,16.33
2022-09-12T08:13:34.134Z,16.53
2022-09-12T08:16:03.061Z,16.68
2022-09-12T08:18:30.847Z,16.88
2022-09-12T08:21:05.496Z,16.99
2022-09-12T08:23:32.437Z,17.10
2022-09-12T08:26:05.286Z,17.31
2022-09-12T08:28:35.086Z,17.43
2022-09-12T08:31:03.540Z,17.55
2022-09-12T08:33:33.463Z,17.70
2022-09-12T08:36:04.974Z,17.87
2022-09-12T08:38:32.122Z,17.90
2022-09-12T08:41:30.939Z,18.02
2022-09-12T08:44:06.945Z,18.31
2022-09-12T08:47:01.176Z,18.51
2022-09-12T08:49:36.498Z,18.57
2022-09-12T08:52:10.500Z,18.63
2022-09-12T08:54:37.974Z,18.79
2022-09-12T08:57:06.026Z,18.90
2022-09-12T08:59:38.451Z,19.00
2022-09-12T09:02:15.972Z,19.16
2022-09-12T09:05:00.569Z,19.13
2022-09-12T09:07:48.687Z,19.28
2022-09-12T09:10:36.466Z,19.38
2022-09-12T09:13:46.332Z,19.49
2022-09-12T09:16:34.997Z,19.65
2022-09-12T09:19:09.436Z,19.70
2022-09-12T09:21:45.660Z,19.92
2022-09-12T09:24:18.432Z,20.10
2022-09-12T09:27:39.946Z,20.26
2022-09-12T09:30:14.283Z,20.27
2022-09-12T09:32:41.740Z,20.35
2022-09-12T09:35:22.657Z,20.44
2022-09-12T09:38:04.660Z,20.32
2022-09-12T09:40:39.466Z,20.45
2022-09-12T09:43:20.224Z,20.45
2022-09-12T09:45:47.963Z,20.39
2022-09-12T09:48:21.350Z,20.43
2022-09-12T09:50:49.312Z,20.46
2022-09-12T09:53:54.910Z,20.50
2022-09-12T09:56:34.886Z,20.58
2022-09-12T09:59:19.894Z,20.71
2022-09-12T10:02:03.808Z,20.82
2022-09-12T10:04:36.982Z,20.83
2022-09-12T10:07:17.330Z,20.84
2022-09-12T10:10:05.927Z,21.00
2022-09-12T10:12:32.583Z,20.92
2022-09-12T10:15:01.337Z,20.96
2022-09-12T10:17:44.315Z,21.00
2022-09-12T10:20:29.089Z,21.03
2022-09-12T10:22:56.201Z,21.12
2022-09-12T10:25:25.847Z,21.32
2022-09-12T10:27:56.259Z,21.36
2022-09-12T10:30:28.106Z,21.41
2022-09-12T10:33:04.237Z,21.54
2022-09-12T10:35:43.656Z,21.66
2022-09-12T10:38:28.478Z,21.81
2022-09-12T10:41:08.653Z,21.90
2022-09-12T10:43:39.436Z,21.85
2022-09-12T10:46:15.585Z,22.06
2022-09-12T10:48:47.226Z,22.11
2022-09-12T10:51:33.870Z,22.22
2022-09-12T10:54:03.594Z,22.34
2022-09-12T10:56:33.939Z,22.42
2022-09-12T10:59:28.122Z,22.41
2022-09-12T11:02:30.408Z,22.09
2022-09-12T11:05:07.139Z,22.27
2022-09-12T11:08:01.541Z,22.50
2022-09-12T11:10:56.935Z,22.37
2022-09-12T11:13:52.560Z,22.59
2022-09-12T11:17:04.165Z,22.59
2022-09-12T11:19:39.035Z,22.51
2022-09-12T11:22:36.289Z,22.29
2022-09-12T11:25:10.719Z,22.29
2022-09-12T11:27:52.235Z,22.56
2022-09-12T11:30:19.099Z,22.82
2022-09-12T11:33:14.824Z,23.04
2022-09-12T11:35:55.020Z,23.16
2022-09-12T11:38:21.933Z,22.99
2022-09-12T11:40:59.997Z,23.00
2022-09-12T11:43:46.788Z,23.13
2022-09-12T11:46:32.403Z,23.13
2022-09-12T11:49:16.975Z,23.24
2022-09-12T11:52:02.234Z,23.09
2022-09-12T11:55:00.426Z,23.00
2022-09-12T11:57:38.941Z,23.00
2022-09-12T12:00:24.355Z,23.30
2022-09-12T12:03:21.071Z,23.59
2022-09-12T12:06:01.554Z,23.68
2022-09-12T12:08:31.020Z,23.70
2022-09-12T12:11:01.895Z,23.70
2022-09-12T12:13:39.790Z,23.53
2022-09-12T12:16:12.673Z,23.62
2022-09-12T12:18:40.327Z,23.64
2022-09-12T12:21:36.295Z,23.69
2022-09-12T12:24:08.544Z,23.60
2022-09-12T12:26:40.832Z,23.79
2022-09-12T12:29:13.209Z,23.98
2022-09-12T12:31:58.397Z,24.12
2022-09-12T12:34:32.306Z,24.17
2022-09-12T12:37:03.167Z,24.15
2022-09-12T12:39:31.943Z,24.08
2022-09-12T12:42:00.052Z,24.21
2022-09-12T12:44:49.001Z,24.38
2022-09-12T12:47:44.474Z,24.28
2022-09-12T12:50:10.831Z,24.23
2022-09-12T12:52:48.955Z,24.15
2022-09-12T12:55:21.231Z,24.03
2022-09-12T12:58:02.138Z,24.15
2022-09-12T13:00:35.402Z,24.38
2022-09-12T13:03:06.106Z,24.39
2022-09-12T13:05:48.480Z,24.35
2022-09-12T13:08:17.902Z,24.45
2022-09-12T13:10:53.715Z,24.47
2022-09-12T13:13:44.534Z,24.37
2022-09-12T13:16:11.703Z,24.34
2022-09-12T13:18:45.900Z,24.47
2022-09-12T13:21:17.978Z,24.66
2022-09-12T13:23:45.423Z,24.87
2022-09-12T13:26:20.805Z,24.99
2022-09-12T13:28:47.492Z,24.99
2022-09-12T13:31:25.943Z,24.88
2022-09-12T13:34:03.886Z,25.04
2022-09-12T13:37:01.298Z,24.90
2022-09-12T13:39:29.767Z,24.53
2022-09-12T13:42:35.119Z,24.36
2022-09-12T13:45:23.090Z,24.41
2022-09-12T13:48:18.111Z,24.40
2022-09-12T13:50:51.935Z,24.58
2022-09-12T13:53:23.767Z,24.44
2022-09-12T13:55:54.053Z,24.51
2022-09-12T13:58:33.924Z,24.63
2022-09-12T14:01:18.617Z,24.82
2022-09-12T14:04:13.561Z,25.03
2022-09-12T14:06:43.690Z,25.09
2022-09-12T14:09:15.648Z,25.17
2022-09-12T14:11:42.303Z,25.12
2022-09-12T14:14:27.450Z,25.04
2022-09-12T14:16:54.740Z,24.97
2022-09-12T14:19:25.940Z,25.09
2022-09-12T14:21:53.825Z,25.28
2022-09-12T14:24:23.338Z,25.27
2022-09-12T14:26:54.190Z,25.38
2022-09-12T14:29:22.468Z,25.27
2022-09-12T14:32:01.406Z,24.99
2022-09-12T14:34:28.042Z,25.02
2022-09-12T14:36:57.203Z,25.19
2022-09-12T14:39:32.753Z,24.99
2022-09-12T14:42:18.317Z,25.01
2022-09-12T14:44:56.457Z,25.04
2022-09-12T14:47:27.558Z,24.99
2022-09-12T14:49:54.523Z,25.27
2022-09-12T14:52:27.638Z,25.55
2022-09-12T14:55:01.681Z,26.04
2022-09-12T14:57:28.077Z,25.80
2022-09-12T15:00:13.781Z,25.73
2022-09-12T15:02:41.909Z,25.96
2022-09-12T15:05:08.263Z,25.92
2022-09-12T15:07:42.413Z,26.10
2022-09-12T15:10:31.020Z,26.33
2022-09-12T15:13:09.544Z,26.69
2022-09-12T15:15:37.434Z,26.85
2022-09-12T15:18:06.814Z,26.43
2022-09-12T15:20:38.947Z,26.23
2022-09-12T15:23:10.853Z,26.20
2022-09-12T15:25:37.275Z,26.98
2022-09-12T15:28:15.290Z,27.36
2022-09-12T15:30:41.701Z,27.10
2022-09-12T15:33:09.394Z,27.21
2022-09-12T15:35:35.810Z,26.81
2022-09-12T15:38:02.242Z,26.97
2022-09-12T15:40:28.653Z,26.99
2022-09-12T15:42:55.149Z,27.13
2022-09-12T15:45:26.181Z,26.93
2022-09-12T15:47:52.606Z,27.16
2022-09-12T15:50:19.206Z,27.35
2022-09-12T15:52:45.637Z,27.88
2022-09-12T15:55:23.782Z,28.60
2022-09-12T15:57:50.469Z,29.25
2022-09-12T16:00:18.442Z,29.27
2022-09-12T16:02:47.259Z,29.74
2022-09-12T16:05:17.026Z,30.12
2022-09-12T16:07:44.580Z,30.09
2022-09-12T16:10:20.018Z,30.80
2022-09-12T16:12:46.749Z,31.58
2022-09-12T16:15:16.430Z,32.95
2022-09-12T16:17:43.106Z,32.27
2022-09-12T16:20:09.753Z,32.38
2022-09-12T16:22:36.656Z,33.31
2022-09-12T16:25:04.156Z,33.35
2022-09-12T16:27:30.959Z,32.78
2022-09-12T16:29:57.388Z,32.18
2022-09-12T16:32:23.934Z,31.25
2022-09-12T16:34:50.837Z,31.84
2022-09-12T16:37:17.760Z,32.05
2022-09-12T16:39:44.312Z,30.88
2022-09-12T16:42:10.825Z,29.40
2022-09-12T16:44:37.225Z,28.21
2022-09-12T16:47:03.741Z,27.76
2022-09-12T16:49:30.158Z,26.90
2022-09-12T16:51:56.573Z,26.56
2022-09-12T16:54:23.099Z,26.20
2022-09-12T16:56:49.998Z,25.79
2022-09-12T16:59:16.778Z,25.57
2022-09-12T17:01:45.051Z,25.30
2022-09-12T17:04:11.851Z,25.01
2022-09-12T17:06:38.736Z,24.77
2022-09-12T17:09:05.361Z,24.57
2022-09-12T17:11:36.237Z,24.30
2022-09-12T17:14:06.958Z,24.02
2022-09-12T17:16:35.797Z,23.83
2022-09-12T17:19:03.530Z,23.61
2022-09-12T17:21:30.077Z,23.45
2022-09-12T17:23:56.573Z,23.28
2022-09-12T17:26:23.069Z,23.19
2022-09-12T17:28:49.637Z,23.02
2022-09-12T17:31:16.259Z,22.84
2022-09-12T17:33:43.350Z,22.64
2022-09-12T17:36:15.163Z,22.33
2022-09-12T17:38:43.031Z,22.10
2022-09-12T17:41:18.493Z,21.94
2022-09-12T17:43:46.803Z,21.77
2022-09-12T17:46:14.154Z,21.63
2022-09-12T17:48:41.626Z,21.46
2022-09-12T17:51:13.545Z,21.37
2022-09-12T17:53:41.283Z,21.29
2022-09-12T17:56:09.325Z,21.23
2022-09-12T17:58:36.954Z,21.11
2022-09-12T18:01:36.124Z,20.96
2022-09-12T18:04:03.521Z,20.82
2022-09-12T18:06:31.646Z,20.67
2022-09-12T18:09:03.102Z,20.59
2022-09-12T18:11:30.103Z,20.49
2022-09-12T18:13:58.899Z,20.39
2022-09-12T18:16:26.364Z,20.29
2022-09-12T18:18:52.786Z,20.15
2022-09-12T18:21:19.830Z,20.03
2022-09-12T18:23:47.409Z,19.92
2022-09-12T18:26:14.639Z,19.83
2022-09-12T18:28:43.173Z,19.78
2022-09-12T18:31:14.073Z,19.69
2022-09-12T18:33:41.382Z,19.62
2022-09-12T18:36:10.988Z,19.54
2022-09-12T18:38:38.234Z,19.45
2022-09-12T18:41:13.566Z,19.38
2022-09-12T18:43:40.580Z,19.26
2022-09-12T18:46:09.313Z,19.24
2022-09-12T18:48:36.614Z,19.14
2022-09-12T18:51:05.540Z,19.02
2022-09-12T18:53:33.599Z,18.93
2022-09-12T18:56:12.040Z,18.86
2022-09-12T18:58:41.213Z,18.84
2022-09-12T19:01:19.179Z,18.81
2022-09-12T19:03:46.201Z,18.80
2022-09-12T19:06:18.003Z,18.77
2022-09-12T19:08:44.955Z,18.66
2022-09-12T19:11:12.045Z,18.60
2022-09-12T19:13:44.500Z,18.60
2022-09-12T19:16:14.501Z,18.53
2022-09-12T19:18:41.363Z,18.49
2022-09-12T19:21:12.451Z,18.47
2022-09-12T19:23:38.920Z,18.40
2022-09-12T19:26:07.954Z,18.35
2022-09-12T19:28:35.173Z,18.23
2022-09-12T19:31:06.947Z,18.20
2022-09-12T19:33:34.678Z,18.16
2022-09-12T19:36:03.266Z,18.13
2022-09-12T19:38:29.752Z,18.10
2022-09-12T19:41:01.903Z,17.97
2022-09-12T19:43:29.072Z,17.85
2022-09-12T19:45:56.295Z,17.88
2022-09-12T19:48:23.493Z,17.94
2022-09-12T19:50:50.733Z,17.96
2022-09-12T19:53:18.023Z,17.96
2022-09-12T19:55:45.183Z,17.96
2022-09-12T19:58:13.275Z,17.93
2022-09-12T20:00:39.781Z,17.91
2022-09-12T20:03:06.274Z,17.92
2022-09-12T20:05:33.560Z,17.93
2022-09-12T20:08:00.593Z,17.92
2022-09-12T20:10:27.387Z,17.88
2022-09-12T20:12:53.825Z,17.85
2022-09-12T20:15:20.279Z,17.83
2022-09-12T20:17:46.728Z,17.81
2022-09-12T20:20:13.162Z,17.77
2022-09-12T20:22:40.275Z,17.73
2022-09-12T20:25:07.355Z,17.69
2022-09-12T20:27:33.820Z,17.66
2022-09-12T20:30:00.340Z,17.63
2022-09-12T20:32:28.862Z,17.59
2022-09-12T20:34:56.362Z,17.53
2022-09-12T20:37:23.625Z,17.45
2022-09-12T20:39:51.083Z,17.32
2022-09-12T20:42:17.709Z,17.25
2022-09-12T20:44:44.113Z,17.21
2022-09-12T20:47:10.558Z,17.21
2022-09-12T20:49:37.016Z,17.26
2022-09-12T20:52:04.552Z,17.26
2022-09-12T20:54:31.058Z,17.29
2022-09-12T20:56:57.509Z,17.26
2022-09-12T20:59:23.913Z,17.26
2022-09-12T21:01:50.401Z,17.27
2022-09-12T21:04:18.306Z,17.28
2022-09-12T21:06:44.815Z,17.29
2022-09-12T21:09:11.396Z,17.31
2022-09-12T21:11:37.854Z,17.30
2022-09-12T21:14:04.362Z,17.31
2022-09-12T21:16:30.898Z,17.28
2022-09-12T21:18:59.502Z,17.28
2022-09-12T21:21:26.627Z,17.33
2022-09-12T21:23:55.246Z,17.32
2022-09-12T21:26:21.669Z,17.28
2022-09-12T21:28:48.476Z,17.22
2022-09-12T21:31:14.932Z,17.20
2022-09-12T21:33:41.388Z,17.15
2022-09-12T21:36:08.374Z,17.12
2022-09-12T21:38:34.922Z,17.13
2022-09-12T21:41:12.822Z,17.18
2022-09-12T21:43:40.792Z,17.18
2022-09-12T21:46:08.420Z,17.18
2022-09-12T21:48:35.537Z,17.18
2022-09-12T21:51:02.337Z,17.22
2022-09-12T21:53:29.006Z,17.24
2022-09-12T21:56:00.051Z,17.26
2022-09-12T21:58:26.445Z,17.25
2022-09-12T22:00:52.902Z,17.19
2022-09-12T22:03:19.315Z,17.16
2022-09-12T22:05:51.093Z,17.16
2022-09-12T22:08:17.913Z,17.11
2022-09-12T22:10:44.324Z,17.05
2022-09-12T22:13:10.700Z,17.00
2022-09-12T22:15:40.883Z,17.04
2022-09-12T22:18:07.728Z,17.04
2022-09-12T22:20:34.174Z,17.04
2022-09-12T22:23:23.829Z,17.06
2022-09-12T22:25:54.363Z,17.07
2022-09-12T22:28:21.240Z,17.08
2022-09-12T22:30:48.532Z,17.11
2022-09-12T22:33:15.449Z,17.11
2022-09-12T22:35:42.447Z,17.12
2022-09-12T22:38:09.158Z,17.08
2022-09-12T22:40:35.646Z,17.08
2022-09-12T22:43:02.268Z,17.07
2022-09-12T22:45:28.735Z,17.09
2022-09-12T22:47:56.374Z,17.09
2022-09-12T22:50:25.665Z,17.12
2022-09-12T22:52:52.620Z,17.13
2022-09-12T22:55:19.096Z,17.15
2022-09-12T22:57:45.522Z,17.14
2022-09-12T23:00:12.648Z,17.15
2022-09-12T23:02:39.072Z,17.14
2022-09-12T23:05:06.114Z,17.14
2022-09-12T23:07:33.146Z,17.15
2022-09-12T23:09:59.541Z,17.17
2022-09-12T23:12:26.271Z,17.18
2022-09-12T23:14:52.696Z,17.20
2022-09-12T23:17:19.123Z,17.18
2022-09-12T23:19:45.616Z,17.15
2022-09-12T23:22:12.045Z,17.11
2022-09-12T23:24:38.757Z,17.03
2022-09-12T23:27:05.906Z,17.00
2022-09-12T23:29:34.340Z,16.98
2022-09-12T23:32:02.117Z,16.99
2022-09-12T23:34:29.190Z,17.01
2022-09-12T23:36:56.297Z,17.01
2022-09-12T23:39:25.939Z,17.03
2022-09-12T23:41:52.339Z,17.03
2022-09-12T23:44:18.752Z,17.05
2022-09-12T23:46:45.143Z,17.09
2022-09-12T23:49:11.564Z,17.09
2022-09-12T23:51:37.990Z,17.07
2022-09-12T23:54:04.443Z,17.04
2022-09-12T23:56:30.843Z,17.00
2022-09-12T23:58:57.286Z,17.01
